createdAt,value
2018-03-01T00:01:23.844Z,14.52
2018-03-01T00:03:51.292Z,21.08
2018-03-01T00:06:18.746Z,12.30
2018-03-01T00:08:46.192Z,11.88
2018-03-01T00:11:13.660Z,18.10
2018-03-01T00:13:41.100Z,11.65
2018-03-01T00:16:08.545Z,19.17
2018-03-01T00:18:36.773Z,24.35
2018-03-01T00:21:04.228Z,14.55
2018-03-01T00:23:31.691Z,17.90
2018-03-01T00:25:59.140Z,15.93
2018-03-01T00:28:26.598Z,19.77
2018-03-01T00:30:54.822Z,14.63
2018-03-01T00:33:22.273Z,17.27
2018-03-01T00:35:50.487Z,18.20
2018-03-01T00:38:17.928Z,15.70
2018-03-01T00:40:45.373Z,15.30
2018-03-01T00:43:14.781Z,11.60
2018-03-01T00:45:42.244Z,23.83
2018-03-01T00:48:09.688Z,18.30
2018-03-01T00:50:37.132Z,19.27
2018-03-01T00:53:05.363Z,25.27
2018-03-01T00:55:32.787Z,20.30
2018-03-01T00:58:00.236Z,13.17
2018-03-01T01:00:28.438Z,14.47
2018-03-01T01:02:55.893Z,19.70
2018-03-01T01:05:23.349Z,22.47
2018-03-01T01:07:50.792Z,13.18
2018-03-01T01:10:21.401Z,19.03
2018-03-01T01:12:49.635Z,16.80
2018-03-01T01:15:17.092Z,17.57
2018-03-01T01:17:44.540Z,16.62
2018-03-01T01:20:12.062Z,17.77
2018-03-01T01:22:40.269Z,14.77
2018-03-01T01:25:07.725Z,14.97
2018-03-01T01:27:35.180Z,18.00
2018-03-01T01:30:02.621Z,18.07
2018-03-01T01:32:30.067Z,18.40
2018-03-01T01:34:57.510Z,15.93
2018-03-01T01:37:25.726Z,15.95
2018-03-01T01:39:53.183Z,21.90
2018-03-01T01:42:20.641Z,14.17
2018-03-01T01:44:48.098Z,20.60
2018-03-01T01:47:15.540Z,8.87
2018-03-01T01:49:42.984Z,15.07
2018-03-01T01:52:10.424Z,15.10
2018-03-01T01:54:38.628Z,16.60
2018-03-01T01:57:06.098Z,20.00
2018-03-01T01:59:33.515Z,13.87
2018-03-01T02:02:01.729Z,14.53
2018-03-01T02:04:29.175Z,21.90
2018-03-01T02:06:56.624Z,13.27
2018-03-01T02:09:24.064Z,23.60
2018-03-01T02:11:52.280Z,11.70
2018-03-01T02:14:19.737Z,16.20
2018-03-01T02:16:47.174Z,16.30
2018-03-01T02:19:14.620Z,15.10
2018-03-01T02:21:42.841Z,15.00
2018-03-01T02:24:10.353Z,16.67
2018-03-01T02:26:38.570Z,13.60
2018-03-01T02:29:06.029Z,19.97
2018-03-01T02:31:33.476Z,17.23
2018-03-01T02:34:00.945Z,18.30
2018-03-01T02:36:33.346Z,11.40
2018-03-01T02:39:00.848Z,17.70
2018-03-01T02:41:28.389Z,13.70
2018-03-01T02:43:56.604Z,15.47
2018-03-01T02:46:24.057Z,15.73
2018-03-01T02:48:51.512Z,10.20
2018-03-01T02:51:18.952Z,17.00
2018-03-01T02:53:46.391Z,12.80
2018-03-01T02:56:14.610Z,14.70
2018-03-01T02:58:42.073Z,17.20
2018-03-01T03:01:09.536Z,11.10
2018-03-01T03:03:36.986Z,22.20
2018-03-01T03:06:04.439Z,18.58
2018-03-01T03:08:31.972Z,19.17
2018-03-01T03:10:59.414Z,16.45
2018-03-01T03:13:27.640Z,15.48
2018-03-01T03:15:55.088Z,15.30
2018-03-01T03:18:22.529Z,16.07
2018-03-01T03:20:49.984Z,13.65
2018-03-01T03:23:17.454Z,16.00
2018-03-01T03:25:44.918Z,18.70
2018-03-01T03:28:12.376Z,16.02
2018-03-01T03:30:40.589Z,12.35
2018-03-01T03:33:08.096Z,13.18
2018-03-01T03:35:35.541Z,19.48
2018-03-01T03:38:03.093Z,21.40
2018-03-01T03:40:30.546Z,13.88
2018-03-01T03:42:58.028Z,20.33
2018-03-01T03:45:25.567Z,23.35
2018-03-01T03:47:53.016Z,19.67
2018-03-01T03:50:20.472Z,20.67
2018-03-01T03:52:47.921Z,21.15
2018-03-01T03:55:16.141Z,14.60
2018-03-01T03:57:43.597Z,15.63
2018-03-01T04:00:11.050Z,19.53
2018-03-01T04:02:38.498Z,17.73
2018-03-01T04:05:05.960Z,21.15
2018-03-01T04:07:33.418Z,15.65
2018-03-01T04:10:00.886Z,18.87
2018-03-01T04:12:28.348Z,16.48
2018-03-01T04:14:55.807Z,19.33
2018-03-01T04:17:23.261Z,15.07
2018-03-01T04:19:50.728Z,16.62
2018-03-01T04:22:18.180Z,19.25
2018-03-01T04:24:45.700Z,15.98
2018-03-01T04:27:13.142Z,17.80
2018-03-01T04:29:41.384Z,21.23
2018-03-01T04:32:08.838Z,15.38
2018-03-01T04:34:36.367Z,14.85
2018-03-01T04:37:03.825Z,15.45
2018-03-01T04:39:31.304Z,18.67
2018-03-01T04:41:58.770Z,13.32
2018-03-01T04:44:26.310Z,19.48
2018-03-01T04:46:53.798Z,14.75
2018-03-01T04:49:21.268Z,20.75
2018-03-01T04:51:48.731Z,17.62
2018-03-01T04:54:16.197Z,14.40
2018-03-01T04:56:43.642Z,17.08
2018-03-01T04:59:11.109Z,17.00
2018-03-01T05:01:39.421Z,12.88
2018-03-01T05:04:06.888Z,17.40
2018-03-01T05:06:34.325Z,16.17
2018-03-01T05:09:01.892Z,12.07
2018-03-01T05:11:29.346Z,16.42
2018-03-01T05:13:56.814Z,16.45
2018-03-01T05:16:24.276Z,14.63
2018-03-01T05:18:51.787Z,14.82
2018-03-01T05:21:19.225Z,13.17
2018-03-01T05:23:46.690Z,12.43
2018-03-01T05:26:14.176Z,10.77
2018-03-01T05:28:42.410Z,20.80
2018-03-01T05:31:09.865Z,17.37
2018-03-01T05:33:37.333Z,26.45
2018-03-01T05:36:04.787Z,17.12
2018-03-01T05:38:32.260Z,10.25
2018-03-01T05:41:00.334Z,25.45
2018-03-01T05:43:28.577Z,10.68
2018-03-01T05:45:56.241Z,14.60
2018-03-01T05:48:23.710Z,17.37
2018-03-01T05:50:51.937Z,11.03
2018-03-01T05:53:19.407Z,13.40
2018-03-01T05:55:46.852Z,15.27
2018-03-01T05:58:14.408Z,13.17
2018-03-01T06:00:42.701Z,14.67
2018-03-01T06:03:10.258Z,17.58
2018-03-01T06:05:37.740Z,15.43
2018-03-01T06:08:05.453Z,20.83
2018-03-01T06:10:32.978Z,14.43
2018-03-01T06:13:01.199Z,14.77
2018-03-01T06:15:28.690Z,13.82
2018-03-01T06:17:56.142Z,14.95
2018-03-01T06:20:23.613Z,18.02
2018-03-01T06:22:51.071Z,11.00
2018-03-01T06:25:19.661Z,15.50
2018-03-01T06:27:47.129Z,9.13
2018-03-01T06:30:14.615Z,14.35
2018-03-01T06:32:42.112Z,10.90
2018-03-01T06:35:09.659Z,11.05
2018-03-01T06:37:37.115Z,14.87
2018-03-01T06:40:04.727Z,14.93
2018-03-01T06:42:32.321Z,18.08
2018-03-01T06:45:01.626Z,11.32
2018-03-01T06:47:29.098Z,14.13
2018-03-01T06:49:56.561Z,13.80
2018-03-01T06:52:24.017Z,16.90
2018-03-01T06:54:51.476Z,13.25
2018-03-01T06:57:18.939Z,16.37
2018-03-01T06:59:46.384Z,13.17
2018-03-01T07:02:13.866Z,13.70
2018-03-01T07:04:41.339Z,15.60
2018-03-01T07:07:08.799Z,14.23
2018-03-01T07:09:36.251Z,16.90
2018-03-01T07:12:03.712Z,7.97
2018-03-01T07:14:31.171Z,15.40
2018-03-01T07:16:58.658Z,18.13
2018-03-01T07:19:26.084Z,15.50
2018-03-01T07:21:53.547Z,20.90
2018-03-01T07:24:21.011Z,13.30
2018-03-01T07:26:48.506Z,10.57
2018-03-01T07:29:16.729Z,17.40
2018-03-01T07:31:45.350Z,10.20
2018-03-01T07:34:12.802Z,10.00
2018-03-01T07:36:40.260Z,11.07
2018-03-01T07:39:07.718Z,13.70
2018-03-01T07:41:35.937Z,14.90
2018-03-01T07:44:03.387Z,18.17
2018-03-01T07:46:30.850Z,10.77
2018-03-01T07:48:58.339Z,13.77
2018-03-01T07:51:25.849Z,11.02
2018-03-01T07:53:53.337Z,18.00
2018-03-01T07:56:20.881Z,17.60
2018-03-01T07:58:48.323Z,16.07
2018-03-01T08:01:16.815Z,14.00
2018-03-01T08:03:44.277Z,11.40
2018-03-01T08:06:11.728Z,11.40
2018-03-01T08:08:39.184Z,12.83
2018-03-01T08:11:06.682Z,13.48
2018-03-01T08:13:34.149Z,13.70
2018-03-01T08:16:01.657Z,19.00
2018-03-01T08:18:29.115Z,15.52
2018-03-01T08:20:56.569Z,11.13
2018-03-01T08:23:24.045Z,8.70
2018-03-01T08:25:51.513Z,11.93
2018-03-01T08:28:19.041Z,11.60
2018-03-01T08:30:47.262Z,11.57
2018-03-01T08:33:14.725Z,11.73
2018-03-01T08:35:42.190Z,9.67
2018-03-01T08:38:09.720Z,13.67
2018-03-01T08:40:37.251Z,16.83
2018-03-01T08:43:05.751Z,12.20
2018-03-01T08:45:34.233Z,11.63
2018-03-01T08:48:01.693Z,13.63
2018-03-01T08:50:29.233Z,10.80
2018-03-01T08:52:57.717Z,9.07
2018-03-01T08:55:25.180Z,10.03
2018-03-01T08:57:52.627Z,11.30
2018-03-01T09:00:20.846Z,15.63
2018-03-01T09:02:48.286Z,11.10
2018-03-01T09:05:15.824Z,12.20
2018-03-01T09:07:43.262Z,15.53
2018-03-01T09:10:12.477Z,8.53
2018-03-01T09:12:39.928Z,12.17
2018-03-01T09:15:07.383Z,12.43
2018-03-01T09:17:35.657Z,11.80
2018-03-01T09:20:03.894Z,13.47
2018-03-01T09:22:31.374Z,16.57
2018-03-01T09:24:58.866Z,11.50
2018-03-01T09:27:26.302Z,11.67
2018-03-01T09:29:54.535Z,14.50
2018-03-01T09:32:22.055Z,19.57
2018-03-01T09:34:49.675Z,9.00
2018-03-01T09:37:17.168Z,11.90
2018-03-01T09:39:44.617Z,10.13
2018-03-01T09:42:13.274Z,12.80
2018-03-01T09:44:41.554Z,11.13
2018-03-01T09:47:09.048Z,10.30
2018-03-01T09:49:36.491Z,9.97
2018-03-01T09:52:04.779Z,13.50
2018-03-01T09:54:32.230Z,14.20
2018-03-01T09:56:59.695Z,16.97
2018-03-01T09:59:27.149Z,19.20
2018-03-01T10:01:55.457Z,18.13
2018-03-01T10:04:22.904Z,14.80
2018-03-01T10:06:50.380Z,16.03
2018-03-01T10:09:17.824Z,16.13
2018-03-01T10:11:45.275Z,23.17
2018-03-01T10:14:12.725Z,19.30
2018-03-01T10:16:40.188Z,14.70
2018-03-01T10:19:07.631Z,18.10
2018-03-01T10:21:35.079Z,15.37
2018-03-01T10:24:03.289Z,24.40
2018-03-01T10:26:30.728Z,19.90
2018-03-01T10:28:58.197Z,13.60
2018-03-01T10:31:25.636Z,15.27
2018-03-01T10:33:53.096Z,13.73
2018-03-01T10:36:20.553Z,13.40
2018-03-01T10:38:47.984Z,15.70
2018-03-01T10:41:16.218Z,15.00
2018-03-01T10:43:44.421Z,14.77
2018-03-01T10:46:11.965Z,14.87
2018-03-01T10:48:39.505Z,13.37
2018-03-01T10:51:07.013Z,18.80
2018-03-01T10:53:35.414Z,14.60
2018-03-01T10:56:03.615Z,19.90
2018-03-01T10:58:31.174Z,12.67
2018-03-01T11:00:59.649Z,17.20
2018-03-01T11:03:27.230Z,14.87
2018-03-01T11:05:54.679Z,22.33
2018-03-01T11:08:22.154Z,19.00
2018-03-01T11:10:49.593Z,14.63
2018-03-01T11:13:17.175Z,13.23
2018-03-01T11:15:47.323Z,14.73
2018-03-01T11:18:14.882Z,14.80
2018-03-01T11:20:42.437Z,16.50
2018-03-01T11:23:10.184Z,16.93
2018-03-01T11:25:39.018Z,13.30
2018-03-01T11:28:10.512Z,15.60
2018-03-01T11:30:38.489Z,14.00
2018-03-01T11:33:06.074Z,10.80
2018-03-01T11:35:33.522Z,11.17
2018-03-01T11:38:00.963Z,13.60
2018-03-01T11:40:28.430Z,17.60
2018-03-01T11:42:55.915Z,14.07
2018-03-01T11:45:23.389Z,18.37
2018-03-01T11:47:50.820Z,13.83
2018-03-01T11:50:19.052Z,14.90
2018-03-01T11:52:46.489Z,16.97
2018-03-01T11:55:13.927Z,16.13
2018-03-01T11:57:41.376Z,21.20
2018-03-01T12:00:09.614Z,15.77
2018-03-01T12:02:37.070Z,16.40
2018-03-01T12:05:04.535Z,17.07
2018-03-01T12:07:31.990Z,11.93
2018-03-01T12:09:59.445Z,15.40
2018-03-01T12:12:26.902Z,17.87
2018-03-01T12:14:54.388Z,12.20
2018-03-01T12:17:22.603Z,15.60
2018-03-01T12:19:50.134Z,17.23
2018-03-01T12:22:18.420Z,12.83
2018-03-01T12:24:45.866Z,15.10
2018-03-01T12:27:14.102Z,17.80
2018-03-01T12:29:41.564Z,15.93
2018-03-01T12:32:09.024Z,22.03
2018-03-01T12:34:36.475Z,11.23
2018-03-01T12:37:03.929Z,16.90
2018-03-01T12:39:31.390Z,18.87
2018-03-01T12:41:58.837Z,12.87
2018-03-01T12:44:27.048Z,16.57
2018-03-01T12:46:54.494Z,20.07
2018-03-01T12:49:21.960Z,18.00
2018-03-01T12:51:49.481Z,16.10
2018-03-01T12:54:17.832Z,17.43
2018-03-01T12:56:45.477Z,17.83
2018-03-01T12:59:12.942Z,20.53
2018-03-01T13:01:40.390Z,15.43
2018-03-01T13:04:08.605Z,15.30
2018-03-01T13:06:36.078Z,15.57
2018-03-01T13:09:03.604Z,18.27
2018-03-01T13:11:31.051Z,13.70
2018-03-01T13:13:58.508Z,16.20
2018-03-01T13:16:25.945Z,14.10
2018-03-01T13:18:54.190Z,15.90
2018-03-01T13:21:21.730Z,17.50
2018-03-01T13:23:49.257Z,20.77
2018-03-01T13:26:16.706Z,15.50
2018-03-01T13:28:44.926Z,19.07
2018-03-01T13:31:14.348Z,14.03
2018-03-01T13:36:50.489Z,14.03
2018-03-01T13:39:17.937Z,17.10
2018-03-01T13:41:45.377Z,16.33
2018-03-01T13:44:13.620Z,16.63
2018-03-01T13:46:41.521Z,13.10
2018-03-01T13:49:08.978Z,25.30
2018-03-01T13:51:37.189Z,13.73
2018-03-01T13:54:04.659Z,14.97
2018-03-01T13:56:32.182Z,17.97
2018-03-01T13:58:59.644Z,15.80
2018-03-01T14:01:27.154Z,18.70
2018-03-01T14:03:54.617Z,11.30
2018-03-01T14:06:24.036Z,14.40
2018-03-01T14:08:54.938Z,17.47
2018-03-01T14:11:22.392Z,16.10
2018-03-01T14:13:49.852Z,15.30
2018-03-01T14:16:17.321Z,12.77
2018-03-01T14:18:45.539Z,18.97
2018-03-01T14:21:24.714Z,15.60
2018-03-01T14:23:53.763Z,14.40
2018-03-01T14:26:21.255Z,14.87
2018-03-01T14:28:51.201Z,16.10
2018-03-01T14:31:18.659Z,14.77
2018-03-01T14:33:46.113Z,12.60
2018-03-01T14:36:13.620Z,13.57
2018-03-01T14:38:41.086Z,12.73
2018-03-01T14:41:08.536Z,15.40
2018-03-01T14:43:35.993Z,14.80
2018-03-01T14:46:03.430Z,16.63
2018-03-01T14:48:31.660Z,16.13
2018-03-01T14:50:59.111Z,13.40
2018-03-01T14:53:26.564Z,20.23
2018-03-01T14:55:54.034Z,11.63
2018-03-01T14:58:21.485Z,19.20
2018-03-01T15:00:48.927Z,18.47
2018-03-01T15:03:16.377Z,16.17
2018-03-01T15:05:43.817Z,17.90
2018-03-01T15:08:11.368Z,17.90
2018-03-01T15:10:39.581Z,16.37
2018-03-01T15:13:07.042Z,17.50
2018-03-01T15:15:34.488Z,16.57
2018-03-01T15:18:01.944Z,16.47
2018-03-01T15:20:29.399Z,23.70
2018-03-01T15:22:56.837Z,18.20
2018-03-01T15:25:24.297Z,14.23
2018-03-01T15:27:51.758Z,17.73
2018-03-01T15:30:20.025Z,16.90
2018-03-01T15:32:48.229Z,19.17
2018-03-01T15:35:15.688Z,13.70
2018-03-01T15:37:43.148Z,16.10
2018-03-01T15:40:10.609Z,12.50
2018-03-01T15:42:38.060Z,18.70
2018-03-01T15:45:05.528Z,21.50
2018-03-01T15:47:32.972Z,14.90
2018-03-01T15:50:00.471Z,18.33
2018-03-01T15:52:27.961Z,18.93
2018-03-01T15:54:56.420Z,20.50
2018-03-01T15:57:25.037Z,12.50
2018-03-01T15:59:52.500Z,22.33
2018-03-01T16:02:19.948Z,17.53
2018-03-01T16:04:47.400Z,15.40
2018-03-01T16:07:15.618Z,18.10
2018-03-01T16:09:43.129Z,17.20
2018-03-01T16:12:11.347Z,19.80
2018-03-01T16:14:39.571Z,21.00
2018-03-01T16:17:07.789Z,20.60
2018-03-01T16:19:35.485Z,19.10
2018-03-01T16:22:02.974Z,15.10
2018-03-01T16:24:31.235Z,17.33
2018-03-01T16:26:58.677Z,17.90
2018-03-01T16:29:26.130Z,17.80
2018-03-01T16:31:53.604Z,20.53
2018-03-01T16:34:21.064Z,20.53
2018-03-01T16:36:48.496Z,19.50
2018-03-01T16:39:15.946Z,20.93
2018-03-01T16:41:43.412Z,14.37
2018-03-01T16:44:10.871Z,15.47
2018-03-01T16:46:38.931Z,17.17
2018-03-01T16:49:06.379Z,13.00
2018-03-01T16:51:33.832Z,22.73
2018-03-01T16:54:01.495Z,16.50
2018-03-01T16:56:28.958Z,17.20
2018-03-01T16:58:56.452Z,17.70
2018-03-01T17:01:23.904Z,20.77
2018-03-01T17:03:51.395Z,21.57
2018-03-01T17:06:19.872Z,20.67
2018-03-01T17:08:48.106Z,20.43
2018-03-01T17:11:15.554Z,16.30
2018-03-01T17:13:43.009Z,25.90
2018-03-01T17:16:10.539Z,22.03
2018-03-01T17:18:38.000Z,24.00
2018-03-01T17:21:05.447Z,22.93
2018-03-01T17:23:32.902Z,21.77
2018-03-01T17:26:00.424Z,20.30
2018-03-01T17:28:27.964Z,17.27
2018-03-01T17:30:55.406Z,19.83
2018-03-01T17:33:23.010Z,12.43
2018-03-01T17:35:50.443Z,17.00
2018-03-01T17:38:17.952Z,18.77
2018-03-01T17:40:45.424Z,20.30
2018-03-01T17:43:12.910Z,24.30
2018-03-01T17:45:40.416Z,21.90
2018-03-01T17:48:08.649Z,20.40
2018-03-01T17:50:36.110Z,17.70
2018-03-01T17:53:03.569Z,20.60
2018-03-01T17:55:31.028Z,16.97
2018-03-01T17:57:58.477Z,23.03
2018-03-01T18:00:25.973Z,17.90
2018-03-01T18:02:53.388Z,17.23
2018-03-01T18:05:20.858Z,19.33
2018-03-01T18:07:49.893Z,20.37
2018-03-01T18:10:18.118Z,21.00
2018-03-01T18:12:45.562Z,22.00
2018-03-01T18:15:14.140Z,21.70
2018-03-01T18:17:41.586Z,25.17
2018-03-01T18:20:09.037Z,17.37
2018-03-01T18:22:36.480Z,18.10
2018-03-01T18:25:03.931Z,19.57
2018-03-01T18:27:32.145Z,22.00
2018-03-01T18:29:59.604Z,22.07
2018-03-01T18:32:27.053Z,20.17
2018-03-01T18:34:54.589Z,20.57
2018-03-01T18:37:22.025Z,21.97
2018-03-01T18:39:50.313Z,18.67
2018-03-01T18:42:18.581Z,23.37
2018-03-01T18:44:46.799Z,22.37
2018-03-01T18:47:14.253Z,23.20
2018-03-01T18:49:41.765Z,21.07
2018-03-01T18:52:10.057Z,21.23
2018-03-01T18:54:38.274Z,31.47
2018-03-01T18:57:05.729Z,25.80
2018-03-01T18:59:33.182Z,26.83
2018-03-01T19:02:00.653Z,20.33
2018-03-01T19:04:28.106Z,27.80
2018-03-01T19:06:55.556Z,26.47
2018-03-01T19:09:23.011Z,21.77
2018-03-01T19:11:50.505Z,25.17
2018-03-01T19:14:17.954Z,24.70
2018-03-01T19:16:45.398Z,23.10
2018-03-01T19:19:12.845Z,23.30
2018-03-01T19:21:40.301Z,21.23
2018-03-01T19:24:07.756Z,28.40
2018-03-01T19:26:35.216Z,23.43
2018-03-01T19:29:02.768Z,23.47
2018-03-01T19:31:30.228Z,22.10
2018-03-01T19:33:57.677Z,21.20
2018-03-01T19:36:25.127Z,25.07
2018-03-01T19:38:52.582Z,24.60
2018-03-01T19:41:20.028Z,26.63
2018-03-01T19:43:47.476Z,24.90
2018-03-01T19:46:15.702Z,23.87
2018-03-01T19:48:43.210Z,29.23
2018-03-01T19:51:11.435Z,28.17
2018-03-01T19:53:38.890Z,24.70
2018-03-01T19:56:06.349Z,20.03
2018-03-01T19:58:33.796Z,22.40
2018-03-01T20:01:01.254Z,28.33
2018-03-01T20:03:28.703Z,15.73
2018-03-01T20:05:56.176Z,28.10
2018-03-01T20:08:23.695Z,25.20
2018-03-01T20:10:52.040Z,29.47
2018-03-01T20:13:19.446Z,23.03
2018-03-01T20:15:46.909Z,31.40
2018-03-01T20:18:14.484Z,29.50
2018-03-01T20:20:42.930Z,20.90
2018-03-01T20:23:11.228Z,17.43
2018-03-01T20:25:38.690Z,36.50
2018-03-01T20:28:06.150Z,29.43
2018-03-01T20:30:34.654Z,28.60
2018-03-01T20:33:02.116Z,23.83
2018-03-01T20:35:29.569Z,25.37
2018-03-01T20:37:57.050Z,26.37
2018-03-01T20:40:24.507Z,29.87
2018-03-01T20:42:51.990Z,30.97
2018-03-01T20:45:20.211Z,28.00
2018-03-01T20:47:47.657Z,35.63
2018-03-01T20:50:15.112Z,27.47
2018-03-01T20:52:42.576Z,35.60
2018-03-01T20:55:10.041Z,29.60
2018-03-01T20:57:37.493Z,30.57
2018-03-01T21:00:04.960Z,26.63
2018-03-01T21:02:32.404Z,33.27
2018-03-01T21:04:59.934Z,31.33
2018-03-01T21:07:27.375Z,29.13
2018-03-01T21:09:55.600Z,40.60
2018-03-01T21:12:23.131Z,29.57
2018-03-01T21:14:50.586Z,28.83
2018-03-01T21:17:18.034Z,29.37
2018-03-01T21:19:45.511Z,29.77
2018-03-01T21:22:13.056Z,36.57
2018-03-01T21:24:40.498Z,27.37
2018-03-01T21:27:08.726Z,26.50
2018-03-01T21:29:36.168Z,24.77
2018-03-01T21:32:03.734Z,28.50
2018-03-01T21:34:31.184Z,36.70
2018-03-01T21:36:58.640Z,33.70
2018-03-01T21:39:26.086Z,28.10
2018-03-01T21:41:53.629Z,34.30
2018-03-01T21:44:21.073Z,32.63
2018-03-01T21:47:01.292Z,28.87
2018-03-01T21:49:28.749Z,29.13
2018-03-01T21:51:56.197Z,35.67
2018-03-01T21:54:23.662Z,24.20
2018-03-01T21:56:51.109Z,24.07
2018-03-01T21:59:18.634Z,35.40
2018-03-01T22:01:46.115Z,31.20
2018-03-01T22:04:14.292Z,34.53
2018-03-01T22:06:41.732Z,20.50
2018-03-01T22:09:09.198Z,32.47
2018-03-01T22:11:36.664Z,26.87
2018-03-01T22:14:04.118Z,35.97
2018-03-01T22:16:31.644Z,28.97
2018-03-01T22:18:59.993Z,21.03
2018-03-01T22:21:27.515Z,30.17
2018-03-01T22:23:55.040Z,25.67
2018-03-01T22:26:23.321Z,24.90
2018-03-01T22:28:51.544Z,35.30
2018-03-01T22:31:18.987Z,33.23
2018-03-01T22:33:46.435Z,32.97
2018-03-01T22:36:13.955Z,33.33
2018-03-01T22:38:42.244Z,28.83
2018-03-01T22:41:09.693Z,31.57
2018-03-01T22:43:37.914Z,27.80
2018-03-01T22:46:05.366Z,29.87
2018-03-01T22:48:32.812Z,26.90
2018-03-01T22:51:00.290Z,31.60
2018-03-01T22:53:27.742Z,31.07
2018-03-01T22:55:55.220Z,27.93
2018-03-01T22:58:23.477Z,25.10
2018-03-01T23:00:53.741Z,27.83
2018-03-01T23:03:21.190Z,36.57
2018-03-01T23:05:48.646Z,33.33
2018-03-01T23:08:16.084Z,27.03
2018-03-01T23:10:43.547Z,24.70
2018-03-01T23:13:10.989Z,25.23
2018-03-01T23:15:38.441Z,28.50
2018-03-01T23:18:05.882Z,29.57
2018-03-01T23:20:33.338Z,25.10
2018-03-01T23:23:01.562Z,27.63
2018-03-01T23:25:29.018Z,35.20
2018-03-01T23:27:56.478Z,24.90
2018-03-01T23:30:23.933Z,30.77
2018-03-01T23:32:51.384Z,33.53
2018-03-01T23:35:18.838Z,34.07
2018-03-01T23:37:46.299Z,33.80
2018-03-01T23:40:13.752Z,29.33
2018-03-01T23:42:41.212Z,25.70
2018-03-01T23:45:08.661Z,32.63
2018-03-01T23:47:36.108Z,27.10
2018-03-01T23:50:03.560Z,23.73
2018-03-01T23:52:31.010Z,28.50
2018-03-01T23:54:58.473Z,24.93
2018-03-01T23:57:25.930Z,34.97
2018-03-01T23:59:53.371Z,38.60
